sensor_id;sensor_type;location;lat;lon;timestamp;P1;durP1;ratioP1;P2;durP2;ratioP2
549;SDS011;20066;48.764;9.176;2022-08-21T00:00:34;5.77;;;2.87;;
549;SDS011;20066;48.764;9.176;2022-08-21T00:03:09;8.37;;;2.90;;
549;SDS011;20066;48.764;9.176;2022-08-21T00:05:40;4.57;;;2.53;;
549;SDS011;20066;48.764;9.176;2022-08-21T00:08:10;5.00;;;2.77;;
549;SDS011;20066;48.764;9.176;2022-08-21T00:10:38;5.20;;;2.97;;
549;SDS011;20066;48.764;9.176;2022-08-21T00:13:06;5.73;;;3.03;;
549;SDS011;20066;48.764;9.176;2022-08-21T00:15:35;7.60;;;3.07;;
549;SDS011;20066;48.764;9.176;2022-08-21T00:18:04;9.10;;;3.10;;
549;SDS011;20066;48.764;9.176;2022-08-21T00:20:34;8.83;;;3.20;;
549;SDS011;20066;48.764;9.176;2022-08-21T00:23:02;6.10;;;3.20;;
549;SDS011;20066;48.764;9.176;2022-08-21T00:25:32;4.77;;;3.00;;
549;SDS011;20066;48.764;9.176;2022-08-21T00:28:00;5.53;;;2.90;;
549;SDS011;20066;48.764;9.176;2022-08-21T00:30:29;5.87;;;2.90;;
549;SDS011;20066;48.764;9.176;2022-08-21T00:32:57;5.30;;;3.10;;
549;SDS011;20066;48.764;9.176;2022-08-21T00:35:26;5.67;;;3.00;;
549;SDS011;20066;48.764;9.176;2022-08-21T00:37:56;7.10;;;2.73;;
549;SDS011;20066;48.764;9.176;2022-08-21T00:40:27;5.77;;;2.80;;
549;SDS011;20066;48.764;9.176;2022-08-21T00:42:59;5.50;;;3.10;;
549;SDS011;20066;48.764;9.176;2022-08-21T00:45:29;6.70;;;2.80;;
549;SDS011;20066;48.764;9.176;2022-08-21T00:47:57;5.07;;;2.60;;
549;SDS011;20066;48.764;9.176;2022-08-21T00:50:26;5.40;;;2.90;;
549;SDS011;20066;48.764;9.176;2022-08-21T00:52:58;6.40;;;3.00;;
549;SDS011;20066;48.764;9.176;2022-08-21T00:55:29;3.87;;;2.30;;
549;SDS011;20066;48.764;9.176;2022-08-21T00:58:03;9.30;;;2.70;;
549;SDS011;20066;48.764;9.176;2022-08-21T01:00:37;6.03;;;2.90;;
549;SDS011;20066;48.764;9.176;2022-08-21T01:03:08;7.57;;;3.10;;
549;SDS011;20066;48.764;9.176;2022-08-21T01:05:39;5.57;;;2.97;;
549;SDS011;20066;48.764;9.176;2022-08-21T01:08:08;7.97;;;3.20;;
549;SDS011;20066;48.764;9.176;2022-08-21T01:10:37;5.00;;;2.53;;
549;SDS011;20066;48.764;9.176;2022-08-21T01:13:07;4.30;;;2.83;;
549;SDS011;20066;48.764;9.176;2022-08-21T01:15:38;4.07;;;2.57;;
549;SDS011;20066;48.764;9.176;2022-08-21T01:18:09;6.53;;;3.10;;
549;SDS011;20066;48.764;9.176;2022-08-21T01:20:40;5.70;;;2.90;;
549;SDS011;20066;48.764;9.176;2022-08-21T01:23:13;6.03;;;3.10;;
549;SDS011;20066;48.764;9.176;2022-08-21T01:25:41;10.50;;;2.90;;
549;SDS011;20066;48.764;9.176;2022-08-21T01:28:10;8.03;;;2.90;;
549;SDS011;20066;48.764;9.176;2022-08-21T01:30:40;8.13;;;2.90;;
549;SDS011;20066;48.764;9.176;2022-08-21T01:33:10;7.10;;;3.00;;
549;SDS011;20066;48.764;9.176;2022-08-21T01:35:38;6.13;;;3.47;;
549;SDS011;20066;48.764;9.176;2022-08-21T01:38:06;5.20;;;2.70;;
549;SDS011;20066;48.764;9.176;2022-08-21T01:40:35;6.00;;;3.07;;
549;SDS011;20066;48.764;9.176;2022-08-21T01:43:03;4.33;;;2.70;;
549;SDS011;20066;48.764;9.176;2022-08-21T01:45:31;4.67;;;2.60;;
549;SDS011;20066;48.764;9.176;2022-08-21T01:47:58;8.00;;;3.20;;
549;SDS011;20066;48.764;9.176;2022-08-21T01:50:26;5.50;;;2.90;;
549;SDS011;20066;48.764;9.176;2022-08-21T01:52:54;5.77;;;2.60;;
549;SDS011;20066;48.764;9.176;2022-08-21T01:55:22;5.73;;;2.60;;
549;SDS011;20066;48.764;9.176;2022-08-21T01:57:52;5.40;;;2.57;;
549;SDS011;20066;48.764;9.176;2022-08-21T02:00:20;5.97;;;3.20;;
549;SDS011;20066;48.764;9.176;2022-08-21T02:02:50;8.20;;;3.03;;
549;SDS011;20066;48.764;9.176;2022-08-21T02:05:18;5.27;;;3.30;;
549;SDS011;20066;48.764;9.176;2022-08-21T02:07:47;7.77;;;3.13;;
549;SDS011;20066;48.764;9.176;2022-08-21T02:10:17;9.20;;;3.07;;
549;SDS011;20066;48.764;9.176;2022-08-21T02:12:47;6.30;;;3.10;;
549;SDS011;20066;48.764;9.176;2022-08-21T02:15:17;5.80;;;2.70;;
549;SDS011;20066;48.764;9.176;2022-08-21T02:17:46;4.03;;;2.53;;
549;SDS011;20066;48.764;9.176;2022-08-21T02:20:17;4.10;;;2.43;;
549;SDS011;20066;48.764;9.176;2022-08-21T02:22:47;6.83;;;3.40;;
549;SDS011;20066;48.764;9.176;2022-08-21T02:25:15;6.57;;;3.30;;
549;SDS011;20066;48.764;9.176;2022-08-21T02:27:45;9.40;;;2.80;;
549;SDS011;20066;48.764;9.176;2022-08-21T02:30:14;6.80;;;3.20;;
549;SDS011;20066;48.764;9.176;2022-08-21T02:32:45;4.40;;;2.80;;
549;SDS011;20066;48.764;9.176;2022-08-21T02:35:13;3.77;;;2.73;;
549;SDS011;20066;48.764;9.176;2022-08-21T02:37:42;4.67;;;2.80;;
549;SDS011;20066;48.764;9.176;2022-08-21T02:40:11;5.83;;;3.10;;
549;SDS011;20066;48.764;9.176;2022-08-21T02:42:40;5.90;;;3.00;;
549;SDS011;20066;48.764;9.176;2022-08-21T02:45:10;7.17;;;2.90;;
549;SDS011;20066;48.764;9.176;2022-08-21T02:47:40;5.83;;;2.90;;
549;SDS011;20066;48.764;9.176;2022-08-21T02:50:17;5.60;;;2.83;;
549;SDS011;20066;48.764;9.176;2022-08-21T02:52:46;4.53;;;2.93;;
549;SDS011;20066;48.764;9.176;2022-08-21T02:55:20;4.97;;;3.03;;
549;SDS011;20066;48.764;9.176;2022-08-21T02:57:49;8.53;;;3.07;;
549;SDS011;20066;48.764;9.176;2022-08-21T03:00:17;9.97;;;3.10;;
549;SDS011;20066;48.764;9.176;2022-08-21T03:02:48;6.47;;;3.13;;
549;SDS011;20066;48.764;9.176;2022-08-21T03:05:16;5.43;;;2.70;;
549;SDS011;20066;48.764;9.176;2022-08-21T03:07:46;5.57;;;3.13;;
549;SDS011;20066;48.764;9.176;2022-08-21T03:10:14;6.00;;;3.33;;
549;SDS011;20066;48.764;9.176;2022-08-21T03:12:43;6.73;;;3.33;;
549;SDS011;20066;48.764;9.176;2022-08-21T03:15:11;5.67;;;3.30;;
549;SDS011;20066;48.764;9.176;2022-08-21T03:17:41;5.07;;;3.10;;
549;SDS011;20066;48.764;9.176;2022-08-21T03:20:10;7.67;;;3.03;;
549;SDS011;20066;48.764;9.176;2022-08-21T03:22:40;4.77;;;3.17;;
549;SDS011;20066;48.764;9.176;2022-08-21T03:25:18;7.70;;;2.80;;
549;SDS011;20066;48.764;9.176;2022-08-21T03:27:55;6.67;;;3.30;;
549;SDS011;20066;48.764;9.176;2022-08-21T03:30:25;7.40;;;3.13;;
549;SDS011;20066;48.764;9.176;2022-08-21T03:32:53;9.70;;;3.40;;
549;SDS011;20066;48.764;9.176;2022-08-21T03:35:24;5.97;;;2.80;;
549;SDS011;20066;48.764;9.176;2022-08-21T03:37:52;7.93;;;3.50;;
549;SDS011;20066;48.764;9.176;2022-08-21T03:40:21;6.47;;;2.87;;
549;SDS011;20066;48.764;9.176;2022-08-21T03:42:50;4.27;;;2.90;;
549;SDS011;20066;48.764;9.176;2022-08-21T03:45:18;6.80;;;3.00;;
549;SDS011;20066;48.764;9.176;2022-08-21T03:47:50;4.93;;;2.73;;
549;SDS011;20066;48.764;9.176;2022-08-21T03:50:20;5.57;;;3.27;;
549;SDS011;20066;48.764;9.176;2022-08-21T03:52:49;10.07;;;3.27;;
549;SDS011;20066;48.764;9.176;2022-08-21T03:55:17;6.80;;;3.80;;
549;SDS011;20066;48.764;9.176;2022-08-21T03:57:45;4.27;;;2.93;;
549;SDS011;20066;48.764;9.176;2022-08-21T04:00:13;8.10;;;3.40;;
549;SDS011;20066;48.764;9.176;2022-08-21T04:02:42;5.70;;;2.90;;
549;SDS011;20066;48.764;9.176;2022-08-21T04:05:11;7.60;;;3.40;;
549;SDS011;20066;48.764;9.176;2022-08-21T04:07:40;6.80;;;3.27;;
549;SDS011;20066;48.764;9.176;2022-08-21T04:10:12;6.30;;;3.17;;
549;SDS011;20066;48.764;9.176;2022-08-21T04:12:40;5.73;;;3.00;;
549;SDS011;20066;48.764;9.176;2022-08-21T04:15:07;6.03;;;3.03;;
549;SDS011;20066;48.764;9.176;2022-08-21T04:17:36;6.97;;;3.23;;
549;SDS011;20066;48.764;9.176;2022-08-21T04:20:04;4.30;;;3.23;;
549;SDS011;20066;48.764;9.176;2022-08-21T04:22:32;6.50;;;3.20;;
549;SDS011;20066;48.764;9.176;2022-08-21T04:25:00;8.77;;;3.50;;
549;SDS011;20066;48.764;9.176;2022-08-21T04:27:29;7.83;;;3.40;;
549;SDS011;20066;48.764;9.176;2022-08-21T04:29:57;9.47;;;3.27;;
549;SDS011;20066;48.764;9.176;2022-08-21T04:32:25;5.37;;;3.20;;
549;SDS011;20066;48.764;9.176;2022-08-21T04:34:57;6.97;;;3.50;;
549;SDS011;20066;48.764;9.176;2022-08-21T04:37:26;5.40;;;3.00;;
549;SDS011;20066;48.764;9.176;2022-08-21T04:39:54;5.40;;;3.40;;
549;SDS011;20066;48.764;9.176;2022-08-21T04:42:24;7.63;;;3.57;;
549;SDS011;20066;48.764;9.176;2022-08-21T04:44:54;7.70;;;3.20;;
549;SDS011;20066;48.764;9.176;2022-08-21T04:47:23;6.40;;;3.03;;
549;SDS011;20066;48.764;9.176;2022-08-21T04:50:11;9.77;;;3.60;;
549;SDS011;20066;48.764;9.176;2022-08-21T04:52:39;8.40;;;3.27;;
549;SDS011;20066;48.764;9.176;2022-08-21T04:55:09;6.13;;;3.33;;
549;SDS011;20066;48.764;9.176;2022-08-21T04:57:37;6.77;;;3.83;;
549;SDS011;20066;48.764;9.176;2022-08-21T05:00:16;5.77;;;3.47;;
549;SDS011;20066;48.764;9.176;2022-08-21T05:02:45;7.27;;;4.00;;
549;SDS011;20066;48.764;9.176;2022-08-21T05:05:14;10.67;;;3.43;;
549;SDS011;20066;48.764;9.176;2022-08-21T05:07:43;7.70;;;4.10;;
549;SDS011;20066;48.764;9.176;2022-08-21T05:10:12;12.87;;;3.90;;
549;SDS011;20066;48.764;9.176;2022-08-21T05:12:41;6.20;;;3.80;;
549;SDS011;20066;48.764;9.176;2022-08-21T05:15:10;9.33;;;4.10;;
549;SDS011;20066;48.764;9.176;2022-08-21T05:17:40;8.37;;;3.37;;
549;SDS011;20066;48.764;9.176;2022-08-21T05:20:17;8.53;;;3.60;;
549;SDS011;20066;48.764;9.176;2022-08-21T05:22:47;6.53;;;3.33;;
549;SDS011;20066;48.764;9.176;2022-08-21T05:25:14;7.03;;;3.93;;
549;SDS011;20066;48.764;9.176;2022-08-21T05:27:47;5.07;;;3.20;;
549;SDS011;20066;48.764;9.176;2022-08-21T05:30:17;11.87;;;3.30;;
549;SDS011;20066;48.764;9.176;2022-08-21T05:32:47;5.60;;;3.10;;
549;SDS011;20066;48.764;9.176;2022-08-21T05:35:15;11.47;;;3.80;;
549;SDS011;20066;48.764;9.176;2022-08-21T05:37:43;10.30;;;3.00;;
549;SDS011;20066;48.764;9.176;2022-08-21T05:40:11;7.23;;;3.43;;
549;SDS011;20066;48.764;9.176;2022-08-21T05:42:48;7.47;;;3.03;;
549;SDS011;20066;48.764;9.176;2022-08-21T05:45:21;9.10;;;3.37;;
549;SDS011;20066;48.764;9.176;2022-08-21T05:48:09;6.17;;;2.97;;
549;SDS011;20066;48.764;9.176;2022-08-21T05:50:39;5.30;;;3.13;;
549;SDS011;20066;48.764;9.176;2022-08-21T05:53:07;7.30;;;3.90;;
549;SDS011;20066;48.764;9.176;2022-08-21T05:55:37;14.93;;;3.67;;
549;SDS011;20066;48.764;9.176;2022-08-21T05:58:11;7.67;;;3.73;;
549;SDS011;20066;48.764;9.176;2022-08-21T06:00:39;4.80;;;3.10;;
549;SDS011;20066;48.764;9.176;2022-08-21T06:03:11;6.60;;;3.27;;
549;SDS011;20066;48.764;9.176;2022-08-21T06:05:41;6.73;;;3.60;;
549;SDS011;20066;48.764;9.176;2022-08-21T06:08:09;6.67;;;3.83;;
549;SDS011;20066;48.764;9.176;2022-08-21T06:10:37;17.63;;;4.03;;
549;SDS011;20066;48.764;9.176;2022-08-21T06:13:05;12.77;;;4.00;;
549;SDS011;20066;48.764;9.176;2022-08-21T06:15:33;5.53;;;3.50;;
549;SDS011;20066;48.764;9.176;2022-08-21T06:18:02;14.10;;;4.57;;
549;SDS011;20066;48.764;9.176;2022-08-21T06:20:31;5.17;;;3.43;;
549;SDS011;20066;48.764;9.176;2022-08-21T06:22:59;9.63;;;4.70;;
549;SDS011;20066;48.764;9.176;2022-08-21T06:25:27;12.33;;;3.80;;
549;SDS011;20066;48.764;9.176;2022-08-21T06:28:00;8.80;;;3.90;;
549;SDS011;20066;48.764;9.176;2022-08-21T06:30:28;8.70;;;3.80;;
549;SDS011;20066;48.764;9.176;2022-08-21T06:32:56;6.50;;;3.40;;
549;SDS011;20066;48.764;9.176;2022-08-21T06:35:25;7.83;;;4.17;;
549;SDS011;20066;48.764;9.176;2022-08-21T06:37:56;4.97;;;3.63;;
549;SDS011;20066;48.764;9.176;2022-08-21T06:40:25;7.50;;;3.77;;
549;SDS011;20066;48.764;9.176;2022-08-21T06:42:55;9.17;;;3.87;;
549;SDS011;20066;48.764;9.176;2022-08-21T06:45:23;6.67;;;3.30;;
549;SDS011;20066;48.764;9.176;2022-08-21T06:47:57;9.33;;;3.80;;
549;SDS011;20066;48.764;9.176;2022-08-21T06:50:25;6.83;;;3.70;;
549;SDS011;20066;48.764;9.176;2022-08-21T06:52:59;8.03;;;3.93;;
549;SDS011;20066;48.764;9.176;2022-08-21T06:55:27;10.40;;;4.10;;
549;SDS011;20066;48.764;9.176;2022-08-21T06:57:55;8.43;;;4.17;;
549;SDS011;20066;48.764;9.176;2022-08-21T07:00:23;8.83;;;3.73;;
549;SDS011;20066;48.764;9.176;2022-08-21T07:02:51;9.43;;;4.23;;
549;SDS011;20066;48.764;9.176;2022-08-21T07:05:19;8.40;;;4.33;;
549;SDS011;20066;48.764;9.176;2022-08-21T07:07:47;8.97;;;4.37;;
549;SDS011;20066;48.764;9.176;2022-08-21T07:10:16;9.23;;;4.67;;
549;SDS011;20066;48.764;9.176;2022-08-21T07:12:48;10.50;;;4.00;;
549;SDS011;20066;48.764;9.176;2022-08-21T07:15:26;10.00;;;3.90;;
549;SDS011;20066;48.764;9.176;2022-08-21T07:17:55;8.60;;;3.80;;
549;SDS011;20066;48.764;9.176;2022-08-21T07:20:25;12.90;;;4.50;;
549;SDS011;20066;48.764;9.176;2022-08-21T07:22:53;11.80;;;4.10;;
549;SDS011;20066;48.764;9.176;2022-08-21T07:25:23;8.33;;;4.40;;
549;SDS011;20066;48.764;9.176;2022-08-21T07:27:51;9.63;;;4.43;;
549;SDS011;20066;48.764;9.176;2022-08-21T07:30:19;9.20;;;4.60;;
549;SDS011;20066;48.764;9.176;2022-08-21T07:32:47;11.47;;;4.13;;
549;SDS011;20066;48.764;9.176;2022-08-21T07:35:16;9.47;;;4.67;;
549;SDS011;20066;48.764;9.176;2022-08-21T07:37:45;9.87;;;4.27;;
549;SDS011;20066;48.764;9.176;2022-08-21T07:40:13;13.17;;;4.40;;
549;SDS011;20066;48.764;9.176;2022-08-21T07:42:43;9.93;;;4.23;;
549;SDS011;20066;48.764;9.176;2022-08-21T07:45:13;10.40;;;4.20;;
549;SDS011;20066;48.764;9.176;2022-08-21T07:47:41;8.80;;;3.90;;
549;SDS011;20066;48.764;9.176;2022-08-21T07:50:11;12.00;;;4.27;;
549;SDS011;20066;48.764;9.176;2022-08-21T07:52:40;7.40;;;4.10;;
549;SDS011;20066;48.764;9.176;2022-08-21T07:55:09;9.93;;;3.70;;
549;SDS011;20066;48.764;9.176;2022-08-21T07:57:40;10.50;;;4.70;;
549;SDS011;20066;48.764;9.176;2022-08-21T08:00:11;6.10;;;3.57;;
549;SDS011;20066;48.764;9.176;2022-08-21T08:02:43;8.47;;;4.23;;
549;SDS011;20066;48.764;9.176;2022-08-21T08:05:12;10.23;;;4.20;;
549;SDS011;20066;48.764;9.176;2022-08-21T08:07:40;10.50;;;4.10;;
549;SDS011;20066;48.764;9.176;2022-08-21T08:10:09;7.33;;;3.70;;
549;SDS011;20066;48.764;9.176;2022-08-21T08:12:38;7.60;;;3.57;;
549;SDS011;20066;48.764;9.176;2022-08-21T08:15:11;8.73;;;4.03;;
549;SDS011;20066;48.764;9.176;2022-08-21T08:17:40;12.13;;;4.00;;
549;SDS011;20066;48.764;9.176;2022-08-21T08:20:08;11.50;;;4.10;;
549;SDS011;20066;48.764;9.176;2022-08-21T08:22:42;8.73;;;4.80;;
549;SDS011;20066;48.764;9.176;2022-08-21T08:25:16;6.90;;;4.43;;
549;SDS011;20066;48.764;9.176;2022-08-21T08:27:45;9.63;;;4.10;;
549;SDS011;20066;48.764;9.176;2022-08-21T08:30:15;7.77;;;3.60;;
549;SDS011;20066;48.764;9.176;2022-08-21T08:32:46;8.00;;;3.80;;
549;SDS011;20066;48.764;9.176;2022-08-21T08:35:14;12.73;;;4.57;;
549;SDS011;20066;48.764;9.176;2022-08-21T08:37:43;12.13;;;4.00;;
549;SDS011;20066;48.764;9.176;2022-08-21T08:40:18;12.20;;;4.20;;
549;SDS011;20066;48.764;9.176;2022-08-21T08:42:50;9.53;;;3.80;;
549;SDS011;20066;48.764;9.176;2022-08-21T08:45:21;6.80;;;3.57;;
549;SDS011;20066;48.764;9.176;2022-08-21T08:47:53;10.43;;;3.80;;
549;SDS011;20066;48.764;9.176;2022-08-21T08:50:27;9.77;;;4.30;;
549;SDS011;20066;48.764;9.176;2022-08-21T08:53:06;8.13;;;3.57;;
549;SDS011;20066;48.764;9.176;2022-08-21T08:55:40;5.70;;;3.50;;
549;SDS011;20066;48.764;9.176;2022-08-21T08:58:11;7.90;;;3.87;;
549;SDS011;20066;48.764;9.176;2022-08-21T09:00:46;7.93;;;4.10;;
549;SDS011;20066;48.764;9.176;2022-08-21T09:03:18;10.07;;;4.40;;
549;SDS011;20066;48.764;9.176;2022-08-21T09:05:47;6.87;;;4.17;;
549;SDS011;20066;48.764;9.176;2022-08-21T09:08:36;5.80;;;3.47;;
549;SDS011;20066;48.764;9.176;2022-08-21T09:11:19;6.90;;;3.63;;
549;SDS011;20066;48.764;9.176;2022-08-21T09:13:55;8.80;;;3.57;;
549;SDS011;20066;48.764;9.176;2022-08-21T09:16:36;7.93;;;3.83;;
549;SDS011;20066;48.764;9.176;2022-08-21T09:19:20;7.90;;;4.17;;
549;SDS011;20066;48.764;9.176;2022-08-21T09:22:02;11.43;;;3.87;;
549;SDS011;20066;48.764;9.176;2022-08-21T09:24:38;10.10;;;4.50;;
549;SDS011;20066;48.764;9.176;2022-08-21T09:27:17;8.33;;;3.77;;
549;SDS011;20066;48.764;9.176;2022-08-21T09:29:50;8.33;;;4.40;;
549;SDS011;20066;48.764;9.176;2022-08-21T09:32:23;11.27;;;3.97;;
549;SDS011;20066;48.764;9.176;2022-08-21T09:35:04;8.97;;;4.17;;
549;SDS011;20066;48.764;9.176;2022-08-21T09:37:46;10.70;;;3.90;;
549;SDS011;20066;48.764;9.176;2022-08-21T09:40:19;9.67;;;3.40;;
549;SDS011;20066;48.764;9.176;2022-08-21T09:42:57;11.30;;;4.23;;
549;SDS011;20066;48.764;9.176;2022-08-21T09:45:27;6.57;;;3.90;;
549;SDS011;20066;48.764;9.176;2022-08-21T09:48:10;11.70;;;4.83;;
549;SDS011;20066;48.764;9.176;2022-08-21T09:50:40;9.80;;;4.50;;
549;SDS011;20066;48.764;9.176;2022-08-21T09:53:15;12.20;;;4.03;;
549;SDS011;20066;48.764;9.176;2022-08-21T09:55:51;9.47;;;4.77;;
549;SDS011;20066;48.764;9.176;2022-08-21T09:58:40;7.70;;;3.90;;
549;SDS011;20066;48.764;9.176;2022-08-21T10:01:13;10.80;;;4.27;;
549;SDS011;20066;48.764;9.176;2022-08-21T10:03:44;7.97;;;4.00;;
549;SDS011;20066;48.764;9.176;2022-08-21T10:06:20;9.63;;;4.20;;
549;SDS011;20066;48.764;9.176;2022-08-21T10:08:50;11.53;;;3.80;;
549;SDS011;20066;48.764;9.176;2022-08-21T10:11:18;10.50;;;4.20;;
549;SDS011;20066;48.764;9.176;2022-08-21T10:13:56;8.67;;;3.87;;
549;SDS011;20066;48.764;9.176;2022-08-21T10:16:31;6.80;;;3.87;;
549;SDS011;20066;48.764;9.176;2022-08-21T10:19:12;12.93;;;4.10;;
549;SDS011;20066;48.764;9.176;2022-08-21T10:21:54;7.57;;;4.03;;
549;SDS011;20066;48.764;9.176;2022-08-21T10:24:29;10.80;;;3.60;;
549;SDS011;20066;48.764;9.176;2022-08-21T10:27:06;8.63;;;4.00;;
549;SDS011;20066;48.764;9.176;2022-08-21T10:29:45;7.07;;;3.43;;
549;SDS011;20066;48.764;9.176;2022-08-21T10:32:23;12.50;;;3.93;;
549;SDS011;20066;48.764;9.176;2022-08-21T10:35:12;8.00;;;3.70;;
549;SDS011;20066;48.764;9.176;2022-08-21T10:37:48;7.60;;;4.03;;
549;SDS011;20066;48.764;9.176;2022-08-21T10:40:29;8.53;;;4.37;;
549;SDS011;20066;48.764;9.176;2022-08-21T10:43:08;8.63;;;4.33;;
549;SDS011;20066;48.764;9.176;2022-08-21T10:45:51;6.33;;;3.53;;
549;SDS011;20066;48.764;9.176;2022-08-21T10:48:29;7.70;;;4.47;;
549;SDS011;20066;48.764;9.176;2022-08-21T10:51:06;12.10;;;4.70;;
549;SDS011;20066;48.764;9.176;2022-08-21T10:56:29;8.93;;;3.93;;
549;SDS011;20066;48.764;9.176;2022-08-21T10:59:04;12.93;;;5.00;;
549;SDS011;20066;48.764;9.176;2022-08-21T11:01:44;8.97;;;4.83;;
549;SDS011;20066;48.764;9.176;2022-08-21T11:04:19;6.47;;;3.50;;
549;SDS011;20066;48.764;9.176;2022-08-21T11:07:15;9.63;;;3.90;;
549;SDS011;20066;48.764;9.176;2022-08-21T11:09:47;10.50;;;4.27;;
549;SDS011;20066;48.764;9.176;2022-08-21T11:12:23;8.60;;;4.30;;
549;SDS011;20066;48.764;9.176;2022-08-21T11:14:56;11.13;;;3.80;;
549;SDS011;20066;48.764;9.176;2022-08-21T11:17:30;8.17;;;3.47;;
549;SDS011;20066;48.764;9.176;2022-08-21T11:20:03;6.53;;;3.53;;
549;SDS011;20066;48.764;9.176;2022-08-21T11:22:41;10.83;;;4.27;;
549;SDS011;20066;48.764;9.176;2022-08-21T11:25:29;8.27;;;4.10;;
549;SDS011;20066;48.764;9.176;2022-08-21T11:28:05;25.23;;;4.73;;
549;SDS011;20066;48.764;9.176;2022-08-21T11:30:41;8.77;;;4.07;;
549;SDS011;20066;48.764;9.176;2022-08-21T11:33:22;9.00;;;4.57;;
549;SDS011;20066;48.764;9.176;2022-08-21T11:36:02;8.07;;;4.13;;
549;SDS011;20066;48.764;9.176;2022-08-21T11:38:40;10.90;;;4.57;;
549;SDS011;20066;48.764;9.176;2022-08-21T11:43:59;8.10;;;4.27;;
549;SDS011;20066;48.764;9.176;2022-08-21T11:46:40;13.20;;;4.20;;
549;SDS011;20066;48.764;9.176;2022-08-21T11:49:19;10.23;;;4.17;;
549;SDS011;20066;48.764;9.176;2022-08-21T11:51:59;9.73;;;4.53;;
549;SDS011;20066;48.764;9.176;2022-08-21T11:54:37;9.50;;;4.03;;
549;SDS011;20066;48.764;9.176;2022-08-21T11:57:13;8.20;;;4.07;;
549;SDS011;20066;48.764;9.176;2022-08-21T11:59:45;5.50;;;3.30;;
549;SDS011;20066;48.764;9.176;2022-08-21T12:02:18;7.77;;;3.83;;
549;SDS011;20066;48.764;9.176;2022-08-21T12:04:52;13.90;;;4.37;;
549;SDS011;20066;48.764;9.176;2022-08-21T12:07:31;9.10;;;4.53;;
549;SDS011;20066;48.764;9.176;2022-08-21T12:10:07;9.43;;;4.40;;
549;SDS011;20066;48.764;9.176;2022-08-21T12:12:38;6.50;;;3.57;;
549;SDS011;20066;48.764;9.176;2022-08-21T12:15:16;9.97;;;3.87;;
549;SDS011;20066;48.764;9.176;2022-08-21T12:17:54;5.93;;;3.33;;
549;SDS011;20066;48.764;9.176;2022-08-21T12:20:32;9.37;;;3.63;;
549;SDS011;20066;48.764;9.176;2022-08-21T12:23:03;8.10;;;3.53;;
549;SDS011;20066;48.764;9.176;2022-08-21T12:25:44;8.97;;;3.53;;
549;SDS011;20066;48.764;9.176;2022-08-21T12:28:21;9.37;;;3.97;;
549;SDS011;20066;48.764;9.176;2022-08-21T12:30:50;7.13;;;2.93;;
549;SDS011;20066;48.764;9.176;2022-08-21T12:33:24;5.63;;;3.30;;
549;SDS011;20066;48.764;9.176;2022-08-21T12:36:01;12.03;;;3.87;;
549;SDS011;20066;48.764;9.176;2022-08-21T12:38:33;6.33;;;3.10;;
549;SDS011;20066;48.764;9.176;2022-08-21T12:41:12;7.27;;;3.50;;
549;SDS011;20066;48.764;9.176;2022-08-21T12:43:46;7.07;;;3.27;;
549;SDS011;20066;48.764;9.176;2022-08-21T12:46:19;12.27;;;3.77;;
549;SDS011;20066;48.764;9.176;2022-08-21T12:48:52;5.83;;;3.20;;
549;SDS011;20066;48.764;9.176;2022-08-21T12:51:25;6.97;;;3.87;;
549;SDS011;20066;48.764;9.176;2022-08-21T12:53:59;10.47;;;3.90;;
549;SDS011;20066;48.764;9.176;2022-08-21T12:56:29;8.33;;;3.43;;
549;SDS011;20066;48.764;9.176;2022-08-21T12:59:00;10.77;;;4.30;;
549;SDS011;20066;48.764;9.176;2022-08-21T13:01:32;8.00;;;3.63;;
549;SDS011;20066;48.764;9.176;2022-08-21T13:04:08;7.70;;;3.80;;
549;SDS011;20066;48.764;9.176;2022-08-21T13:06:39;10.23;;;3.90;;
549;SDS011;20066;48.764;9.176;2022-08-21T13:09:10;7.93;;;3.60;;
549;SDS011;20066;48.764;9.176;2022-08-21T13:11:43;9.40;;;4.57;;
549;SDS011;20066;48.764;9.176;2022-08-21T13:14:17;8.70;;;4.00;;
549;SDS011;20066;48.764;9.176;2022-08-21T13:16:53;10.30;;;3.70;;
549;SDS011;20066;48.764;9.176;2022-08-21T13:19:22;8.60;;;3.70;;
549;SDS011;20066;48.764;9.176;2022-08-21T13:21:51;8.23;;;3.60;;
549;SDS011;20066;48.764;9.176;2022-08-21T13:24:21;9.23;;;4.60;;
549;SDS011;20066;48.764;9.176;2022-08-21T13:27:20;7.97;;;3.93;;
549;SDS011;20066;48.764;9.176;2022-08-21T13:30:00;7.60;;;3.57;;
549;SDS011;20066;48.764;9.176;2022-08-21T13:32:33;10.13;;;4.50;;
549;SDS011;20066;48.764;9.176;2022-08-21T13:35:14;9.30;;;4.20;;
549;SDS011;20066;48.764;9.176;2022-08-21T13:37:45;9.13;;;4.40;;
549;SDS011;20066;48.764;9.176;2022-08-21T13:40:18;7.30;;;3.80;;
549;SDS011;20066;48.764;9.176;2022-08-21T13:42:50;9.70;;;3.90;;
549;SDS011;20066;48.764;9.176;2022-08-21T13:45:22;8.37;;;3.30;;
549;SDS011;20066;48.764;9.176;2022-08-21T13:47:52;8.50;;;4.40;;
549;SDS011;20066;48.764;9.176;2022-08-21T13:50:21;8.73;;;3.53;;
549;SDS011;20066;48.764;9.176;2022-08-21T13:52:57;9.40;;;4.20;;
549;SDS011;20066;48.764;9.176;2022-08-21T13:55:33;7.30;;;3.73;;
549;SDS011;20066;48.764;9.176;2022-08-21T13:58:05;10.43;;;4.10;;
549;SDS011;20066;48.764;9.176;2022-08-21T14:00:35;7.80;;;3.63;;
549;SDS011;20066;48.764;9.176;2022-08-21T14:03:12;6.10;;;3.40;;
549;SDS011;20066;48.764;9.176;2022-08-21T14:05:55;8.60;;;3.30;;
549;SDS011;20066;48.764;9.176;2022-08-21T14:08:27;7.13;;;3.63;;
549;SDS011;20066;48.764;9.176;2022-08-21T14:10:59;6.50;;;3.50;;
549;SDS011;20066;48.764;9.176;2022-08-21T14:13:35;9.57;;;4.10;;
549;SDS011;20066;48.764;9.176;2022-08-21T14:16:10;5.67;;;3.10;;
549;SDS011;20066;48.764;9.176;2022-08-21T14:18:48;8.50;;;3.47;;
549;SDS011;20066;48.764;9.176;2022-08-21T14:21:29;5.73;;;3.40;;
549;SDS011;20066;48.764;9.176;2022-08-21T14:23:59;6.00;;;3.17;;
549;SDS011;20066;48.764;9.176;2022-08-21T14:26:32;7.77;;;3.57;;
549;SDS011;20066;48.764;9.176;2022-08-21T14:29:04;7.40;;;3.30;;
549;SDS011;20066;48.764;9.176;2022-08-21T14:31:36;5.87;;;3.30;;
549;SDS011;20066;48.764;9.176;2022-08-21T14:34:09;6.33;;;3.40;;
549;SDS011;20066;48.764;9.176;2022-08-21T14:36:45;5.43;;;3.23;;
549;SDS011;20066;48.764;9.176;2022-08-21T14:39:13;6.20;;;3.37;;
549;SDS011;20066;48.764;9.176;2022-08-21T14:41:41;7.13;;;2.97;;
549;SDS011;20066;48.764;9.176;2022-08-21T14:44:13;10.10;;;3.50;;
549;SDS011;20066;48.764;9.176;2022-08-21T14:46:42;8.60;;;3.60;;
549;SDS011;20066;48.764;9.176;2022-08-21T14:49:22;6.40;;;3.30;;
549;SDS011;20066;48.764;9.176;2022-08-21T14:51:52;8.73;;;3.50;;
549;SDS011;20066;48.764;9.176;2022-08-21T14:54:24;8.17;;;3.47;;
549;SDS011;20066;48.764;9.176;2022-08-21T14:56:57;9.00;;;3.70;;
549;SDS011;20066;48.764;9.176;2022-08-21T14:59:27;10.10;;;3.97;;
549;SDS011;20066;48.764;9.176;2022-08-21T15:01:56;8.70;;;3.20;;
549;SDS011;20066;48.764;9.176;2022-08-21T15:04:24;7.47;;;3.73;;
549;SDS011;20066;48.764;9.176;2022-08-21T15:06:52;9.57;;;3.97;;
549;SDS011;20066;48.764;9.176;2022-08-21T15:09:20;8.53;;;3.43;;
549;SDS011;20066;48.764;9.176;2022-08-21T15:11:48;6.80;;;3.60;;
549;SDS011;20066;48.764;9.176;2022-08-21T15:14:17;8.03;;;3.70;;
549;SDS011;20066;48.764;9.176;2022-08-21T15:16:48;9.17;;;3.83;;
549;SDS011;20066;48.764;9.176;2022-08-21T15:19:18;5.83;;;2.90;;
549;SDS011;20066;48.764;9.176;2022-08-21T15:21:46;7.37;;;3.70;;
549;SDS011;20066;48.764;9.176;2022-08-21T15:24:14;4.83;;;3.20;;
549;SDS011;20066;48.764;9.176;2022-08-21T15:26:42;11.00;;;3.60;;
549;SDS011;20066;48.764;9.176;2022-08-21T15:29:10;5.97;;;3.10;;
549;SDS011;20066;48.764;9.176;2022-08-21T15:31:40;5.97;;;3.43;;
549;SDS011;20066;48.764;9.176;2022-08-21T15:34:20;6.43;;;3.77;;
549;SDS011;20066;48.764;9.176;2022-08-21T15:36:52;4.73;;;3.00;;
549;SDS011;20066;48.764;9.176;2022-08-21T15:39:22;8.23;;;3.40;;
549;SDS011;20066;48.764;9.176;2022-08-21T15:41:56;4.53;;;3.03;;
549;SDS011;20066;48.764;9.176;2022-08-21T15:44:24;6.50;;;3.40;;
549;SDS011;20066;48.764;9.176;2022-08-21T15:46:54;6.07;;;3.40;;